createdAt,value
2018-03-02T00:01:34.017Z,54.00
2018-03-02T00:04:03.057Z,54.10
2018-03-02T00:06:31.552Z,54.10
2018-03-02T00:09:00.032Z,53.60
2018-03-02T00:11:28.308Z,54.10
2018-03-02T00:13:56.789Z,54.10
2018-03-02T00:16:25.061Z,54.00
2018-03-02T00:18:53.340Z,54.00
2018-03-02T00:21:21.670Z,54.30
2018-03-02T00:23:50.252Z,54.00
2018-03-02T00:26:18.820Z,54.00
2018-03-02T00:28:47.048Z,54.50
2018-03-02T00:31:15.352Z,54.20
2018-03-02T00:33:44.394Z,54.40
2018-03-02T00:36:12.686Z,54.40
2018-03-02T00:38:40.938Z,54.10
2018-03-02T00:41:09.173Z,54.40
2018-03-02T00:43:38.181Z,53.90
2018-03-02T00:46:06.403Z,53.90
2018-03-02T00:48:34.746Z,54.00
2018-03-02T00:51:03.764Z,54.10
2018-03-02T00:53:32.021Z,54.10
2018-03-02T00:56:00.262Z,54.70
2018-03-02T00:58:29.289Z,55.00
2018-03-02T01:00:57.487Z,55.00
2018-03-02T01:03:25.735Z,54.30
2018-03-02T01:05:53.932Z,55.00
2018-03-02T01:08:22.156Z,55.10
2018-03-02T01:10:51.455Z,55.00
2018-03-02T01:13:20.449Z,54.60
2018-03-02T01:15:49.440Z,55.20
2018-03-02T01:18:18.451Z,55.10
2018-03-02T01:20:46.693Z,55.00
2018-03-02T01:23:14.982Z,54.70
2018-03-02T01:25:44.012Z,56.10
2018-03-02T01:28:12.367Z,55.70
2018-03-02T01:30:41.344Z,56.20
2018-03-02T01:33:11.585Z,56.50
2018-03-02T01:35:40.560Z,56.10
2018-03-02T01:38:08.776Z,56.00
2018-03-02T01:40:37.024Z,56.40
2018-03-02T01:43:06.005Z,56.80
2018-03-02T01:45:35.097Z,57.10
2018-03-02T01:48:04.112Z,57.60
2018-03-02T01:50:32.312Z,57.60
2018-03-02T01:53:00.553Z,57.20
2018-03-02T01:55:31.020Z,56.90
2018-03-02T01:57:59.272Z,57.00
2018-03-02T02:00:27.512Z,56.60
2018-03-02T02:02:55.788Z,56.70
2018-03-02T02:05:24.094Z,57.10
2018-03-02T02:07:53.072Z,56.90
2018-03-02T02:10:21.376Z,56.90
2018-03-02T02:12:49.618Z,57.10
2018-03-02T02:15:17.889Z,57.20
2018-03-02T02:17:46.176Z,57.40
2018-03-02T02:20:15.276Z,57.80
2018-03-02T02:22:44.285Z,57.80
2018-03-02T02:25:12.644Z,57.80
2018-03-02T02:27:41.795Z,58.00
2018-03-02T02:30:09.996Z,58.00
2018-03-02T02:32:38.289Z,58.60
2018-03-02T02:35:07.317Z,59.00
2018-03-02T02:37:35.540Z,58.90
2018-03-02T02:40:03.796Z,58.90
2018-03-02T02:42:32.016Z,58.30
2018-03-02T02:45:01.015Z,58.30
2018-03-02T02:47:30.010Z,57.90
2018-03-02T02:49:58.985Z,58.70
2018-03-02T02:52:27.366Z,58.20
2018-03-02T02:54:55.585Z,58.10
2018-03-02T02:57:23.845Z,59.00
2018-03-02T02:59:52.102Z,59.10
2018-03-02T03:02:21.117Z,59.00
2018-03-02T03:04:49.344Z,59.10
2018-03-02T03:07:17.554Z,58.90
2018-03-02T03:09:46.553Z,59.30
2018-03-02T03:12:14.779Z,59.20
2018-03-02T03:14:43.006Z,59.40
2018-03-02T03:17:11.248Z,59.30
2018-03-02T03:19:39.505Z,59.60
2018-03-02T03:22:07.708Z,60.10
2018-03-02T03:24:36.815Z,59.60
2018-03-02T03:27:05.871Z,60.60
2018-03-02T03:29:34.068Z,60.00
2018-03-02T03:32:02.418Z,61.00
2018-03-02T03:34:30.682Z,60.20
2018-03-02T03:36:58.890Z,60.60
2018-03-02T03:39:27.145Z,61.10
2018-03-02T03:41:55.352Z,62.60
2018-03-02T03:44:23.645Z,63.30
2018-03-02T03:46:52.740Z,64.70
2018-03-02T03:49:21.812Z,64.50
2018-03-02T03:51:50.012Z,64.40
2018-03-02T03:54:19.006Z,64.70
2018-03-02T03:56:48.013Z,64.80
2018-03-02T03:59:16.471Z,64.80
2018-03-02T04:01:45.492Z,63.80
2018-03-02T04:04:13.720Z,63.80
2018-03-02T04:06:41.973Z,62.60
2018-03-02T04:09:10.229Z,62.50
2018-03-02T04:11:38.431Z,61.40
2018-03-02T04:14:06.636Z,61.50
2018-03-02T04:16:35.872Z,61.50
2018-03-02T04:19:04.083Z,61.50
2018-03-02T04:21:32.285Z,61.40
2018-03-02T04:24:01.311Z,61.50
2018-03-02T04:26:29.521Z,61.40
2018-03-02T04:28:57.724Z,62.00
2018-03-02T04:31:26.002Z,62.30
2018-03-02T04:33:54.282Z,63.10
2018-03-02T04:36:23.241Z,65.00
2018-03-02T04:38:51.532Z,65.00
2018-03-02T04:41:19.741Z,66.10
2018-03-02T04:43:47.953Z,67.40
2018-03-02T04:46:16.289Z,67.20
2018-03-02T04:48:45.316Z,68.70
2018-03-02T04:51:13.578Z,68.00
2018-03-02T04:53:41.885Z,67.80
2018-03-02T04:56:10.085Z,68.00
2018-03-02T04:58:38.342Z,68.60
2018-03-02T05:01:07.783Z,67.70
2018-03-02T05:03:36.920Z,69.20
2018-03-02T05:06:05.137Z,68.50
2018-03-02T05:08:33.369Z,68.90
2018-03-02T05:11:01.719Z,69.20
2018-03-02T05:13:30.092Z,69.00
2018-03-02T05:15:59.096Z,69.30
2018-03-02T05:18:27.304Z,69.20
2018-03-02T05:20:55.738Z,68.90
2018-03-02T05:23:24.047Z,68.70
2018-03-02T05:25:52.277Z,68.80
2018-03-02T05:28:20.492Z,69.20
2018-03-02T05:30:48.809Z,69.40
2018-03-02T05:33:17.293Z,69.10
2018-03-02T05:35:45.805Z,69.40
2018-03-02T05:38:14.145Z,69.20
2018-03-02T05:40:42.344Z,69.70
2018-03-02T05:43:10.564Z,70.10
2018-03-02T05:45:39.588Z,70.10
2018-03-02T05:48:07.830Z,70.10
2018-03-02T05:50:36.921Z,70.30
2018-03-02T05:53:05.914Z,70.40
2018-03-02T05:55:34.939Z,70.40
2018-03-02T05:58:03.165Z,70.40
2018-03-02T06:00:31.464Z,70.60
2018-03-02T06:03:00.484Z,71.10
2018-03-02T06:05:28.781Z,71.10
2018-03-02T06:07:57.003Z,71.20
2018-03-02T06:10:26.000Z,71.40
2018-03-02T06:12:54.974Z,71.10
2018-03-02T06:15:23.232Z,71.10
2018-03-02T06:17:51.520Z,70.70
2018-03-02T06:20:19.731Z,70.70
2018-03-02T06:22:48.732Z,71.10
2018-03-02T06:25:16.936Z,71.10
2018-03-02T06:27:45.166Z,71.00
2018-03-02T06:30:14.161Z,71.00
2018-03-02T06:32:43.138Z,71.30
2018-03-02T06:35:11.357Z,71.20
2018-03-02T06:37:39.572Z,71.40
2018-03-02T06:40:07.780Z,71.30
2018-03-02T06:42:37.018Z,71.10
2018-03-02T06:45:05.339Z,71.10
2018-03-02T06:47:33.560Z,70.80
2018-03-02T06:50:01.771Z,70.80
2018-03-02T06:52:30.024Z,70.80
2018-03-02T06:54:58.235Z,70.50
2018-03-02T06:57:26.521Z,70.40
2018-03-02T06:59:55.572Z,69.50
2018-03-02T07:02:24.029Z,69.50
2018-03-02T07:04:53.026Z,69.00
2018-03-02T07:07:21.371Z,69.60
2018-03-02T07:09:50.364Z,69.00
2018-03-02T07:12:19.898Z,68.70
2018-03-02T07:14:48.127Z,68.70
2018-03-02T07:17:16.339Z,68.20
2018-03-02T07:19:45.312Z,67.00
2018-03-02T07:22:13.568Z,67.00
2018-03-02T07:24:41.769Z,66.70
2018-03-02T07:27:10.754Z,64.80
2018-03-02T07:29:39.931Z,64.60
2018-03-02T07:32:08.136Z,64.50
2018-03-02T07:34:37.191Z,62.70
2018-03-02T07:37:05.384Z,62.70
2018-03-02T07:39:33.612Z,62.00
2018-03-02T07:42:01.824Z,62.70
2018-03-02T07:44:30.106Z,61.70
2018-03-02T07:46:58.389Z,61.20
2018-03-02T07:49:26.604Z,60.10
2018-03-02T07:51:54.936Z,57.80
2018-03-02T07:54:23.166Z,57.50
2018-03-02T07:56:51.359Z,57.60
2018-03-02T07:59:19.661Z,57.70
2018-03-02T08:01:47.938Z,57.60
2018-03-02T08:04:16.202Z,57.30
2018-03-02T08:06:44.538Z,57.40
2018-03-02T08:09:12.804Z,56.60
2018-03-02T08:11:41.044Z,56.00
2018-03-02T08:14:10.140Z,56.50
2018-03-02T08:16:38.354Z,55.80
2018-03-02T08:19:06.581Z,55.40
2018-03-02T08:21:34.813Z,55.60
2018-03-02T08:24:03.031Z,55.00
2018-03-02T08:26:31.249Z,54.00
2018-03-02T08:29:00.248Z,54.30
2018-03-02T08:31:28.467Z,54.30
2018-03-02T08:33:57.100Z,53.70
2018-03-02T08:36:26.169Z,53.40
2018-03-02T08:38:54.556Z,53.30
2018-03-02T08:41:23.529Z,53.70
2018-03-02T08:43:51.785Z,53.10
2018-03-02T08:46:20.033Z,52.80
2018-03-02T08:48:48.300Z,52.30
2018-03-02T08:51:16.568Z,52.40
2018-03-02T08:53:45.574Z,50.70
2018-03-02T08:56:13.732Z,50.70
2018-03-02T08:58:42.782Z,51.10
2018-03-02T09:01:10.997Z,51.00
2018-03-02T09:03:41.367Z,50.40
2018-03-02T09:06:09.596Z,50.40
2018-03-02T09:08:38.616Z,50.10
2018-03-02T09:11:06.824Z,49.90
2018-03-02T09:13:35.172Z,49.20
2018-03-02T09:16:03.379Z,48.30
2018-03-02T09:18:31.681Z,48.70
2018-03-02T09:20:59.951Z,48.10
2018-03-02T09:23:28.143Z,48.00
2018-03-02T09:25:57.116Z,48.30
2018-03-02T09:28:25.344Z,48.20
2018-03-02T09:30:53.566Z,48.50
2018-03-02T09:33:21.780Z,48.30
2018-03-02T09:35:50.031Z,47.30
2018-03-02T09:38:18.283Z,48.20
2018-03-02T09:40:46.513Z,46.90
2018-03-02T09:43:16.064Z,45.90
2018-03-02T09:45:44.299Z,47.10
2018-03-02T09:48:12.648Z,45.60
2018-03-02T09:50:41.645Z,40.20
2018-03-02T09:53:10.618Z,38.00
2018-03-02T09:55:39.601Z,37.20
2018-03-02T09:58:08.681Z,37.20
2018-03-02T10:00:36.991Z,37.60
2018-03-02T10:03:05.169Z,35.70
2018-03-02T10:05:33.404Z,35.60
2018-03-02T10:08:01.599Z,36.00
2018-03-02T10:10:29.864Z,35.60
2018-03-02T10:12:58.120Z,35.70
2018-03-02T10:15:26.342Z,33.60
2018-03-02T10:17:54.630Z,34.00
2018-03-02T10:20:23.666Z,33.20
2018-03-02T10:22:51.878Z,33.20
2018-03-02T10:25:20.853Z,33.50
2018-03-02T10:27:49.135Z,34.10
2018-03-02T10:30:17.561Z,34.80
2018-03-02T10:32:46.588Z,34.40
2018-03-02T10:35:14.815Z,34.40
2018-03-02T10:37:43.804Z,30.70
2018-03-02T10:42:49.304Z,29.90
2018-03-02T10:45:17.501Z,28.60
2018-03-02T10:47:45.731Z,30.00
2018-03-02T10:50:13.960Z,28.60
2018-03-02T10:52:42.157Z,28.20
2018-03-02T10:55:10.384Z,30.00
2018-03-02T10:57:39.386Z,32.20
2018-03-02T11:00:07.586Z,32.20
2018-03-02T11:02:35.777Z,32.10
2018-03-02T11:05:09.736Z,30.60
2018-03-02T11:07:38.146Z,32.10
2018-03-02T11:10:06.352Z,30.40
2018-03-02T11:12:35.349Z,29.40
2018-03-02T11:15:04.334Z,30.50
2018-03-02T11:17:32.584Z,30.40
2018-03-02T11:20:00.829Z,31.20
2018-03-02T11:22:29.189Z,31.70
2018-03-02T11:24:57.394Z,32.50
2018-03-02T11:27:25.688Z,33.20
2018-03-02T11:29:53.844Z,33.50
2018-03-02T11:32:22.068Z,32.50
2018-03-02T11:34:51.641Z,32.00
2018-03-02T11:37:19.898Z,31.10
2018-03-02T11:39:48.096Z,30.50
2018-03-02T11:42:16.336Z,30.10
2018-03-02T11:44:44.550Z,29.10
2018-03-02T11:47:12.806Z,32.10
2018-03-02T11:49:41.076Z,31.90
2018-03-02T11:52:09.300Z,31.70
2018-03-02T11:54:38.469Z,35.00
2018-03-02T11:57:06.821Z,35.00
2018-03-02T11:59:35.096Z,35.50
2018-03-02T12:02:03.298Z,34.40
2018-03-02T12:04:31.652Z,34.70
2018-03-02T12:06:59.901Z,34.20
2018-03-02T12:09:28.112Z,33.60
2018-03-02T12:11:56.382Z,34.20
2018-03-02T12:14:24.621Z,34.10
2018-03-02T12:16:53.614Z,30.60
2018-03-02T12:19:21.840Z,30.60
2018-03-02T12:21:50.084Z,28.20
2018-03-02T12:24:18.288Z,26.60
2018-03-02T12:26:46.555Z,26.80
2018-03-02T12:29:14.770Z,26.50
2018-03-02T12:31:43.012Z,26.00
2018-03-02T12:34:11.263Z,27.40
2018-03-02T12:36:39.907Z,28.00
2018-03-02T12:39:08.070Z,31.10
2018-03-02T12:41:36.376Z,31.80
2018-03-02T12:44:05.506Z,32.30
2018-03-02T12:46:33.810Z,32.50
2018-03-02T12:49:02.080Z,33.80
2018-03-02T12:51:30.268Z,33.20
2018-03-02T12:53:58.593Z,32.50
2018-03-02T12:56:28.971Z,33.40
2018-03-02T12:58:57.351Z,33.30
2018-03-02T13:01:25.872Z,32.60
2018-03-02T13:03:54.592Z,32.40
2018-03-02T13:06:22.849Z,32.20
2018-03-02T13:08:51.049Z,32.50
2018-03-02T13:11:20.568Z,32.20
2018-03-02T13:13:49.394Z,33.90
2018-03-02T13:16:19.027Z,36.00
2018-03-02T13:18:47.418Z,36.00
2018-03-02T13:21:16.416Z,36.80
2018-03-02T13:23:44.734Z,36.80
2018-03-02T13:26:24.766Z,35.10
2018-03-02T13:28:52.979Z,35.40
2018-03-02T13:31:21.959Z,35.70
2018-03-02T13:34:02.680Z,35.70
2018-03-02T13:36:31.230Z,36.70
2018-03-02T13:39:00.336Z,36.80
2018-03-02T13:41:40.481Z,36.90
2018-03-02T13:44:08.991Z,36.40
2018-03-02T13:46:37.289Z,37.00
2018-03-02T13:49:17.532Z,37.20
2018-03-02T13:51:45.847Z,37.40
2018-03-02T13:54:14.068Z,37.10
2018-03-02T13:56:54.114Z,37.40
2018-03-02T13:59:22.371Z,37.60
2018-03-02T14:01:51.472Z,36.90
2018-03-02T14:04:32.418Z,37.80
2018-03-02T14:07:00.716Z,37.80
2018-03-02T14:09:29.764Z,36.70
2018-03-02T14:11:59.366Z,36.70
2018-03-02T14:14:27.678Z,37.90
2018-03-02T14:16:55.961Z,37.50
2018-03-02T14:19:25.019Z,37.30
2018-03-02T14:21:53.272Z,37.30
2018-03-02T14:24:21.469Z,38.20
2018-03-02T14:26:49.736Z,39.40
2018-03-02T14:29:18.052Z,40.20
2018-03-02T14:31:46.380Z,40.60
2018-03-02T14:34:14.652Z,40.70
2018-03-02T14:36:42.862Z,40.90
2018-03-02T14:39:11.078Z,41.00
2018-03-02T14:41:40.319Z,38.90
2018-03-02T14:44:08.896Z,39.00
2018-03-02T14:46:37.101Z,39.20
2018-03-02T14:49:05.340Z,39.90
2018-03-02T14:51:33.673Z,40.40
2018-03-02T14:54:01.844Z,41.00
2018-03-02T14:56:30.147Z,41.40
2018-03-02T14:58:58.410Z,41.50
2018-03-02T15:01:27.736Z,41.30
2018-03-02T15:03:56.026Z,41.40
2018-03-02T15:06:24.226Z,41.50
2018-03-02T15:08:52.433Z,41.20
2018-03-02T15:11:20.656Z,41.20
2018-03-02T15:13:48.959Z,41.10
2018-03-02T15:16:17.181Z,41.60
2018-03-02T15:18:46.281Z,43.10
2018-03-02T15:21:15.267Z,43.30
2018-03-02T15:23:44.608Z,43.30
2018-03-02T15:26:12.925Z,43.80
2018-03-02T15:28:41.290Z,43.00
2018-03-02T15:31:09.490Z,43.40
2018-03-02T15:33:38.496Z,44.40
2018-03-02T15:36:07.456Z,44.00
2018-03-02T15:38:35.706Z,44.00
2018-03-02T15:41:04.012Z,44.00
2018-03-02T15:43:32.278Z,43.70
2018-03-02T15:46:00.560Z,44.80
2018-03-02T15:48:28.784Z,45.50
2018-03-02T15:50:56.984Z,45.50
2018-03-02T15:53:25.184Z,46.30
2018-03-02T15:55:53.453Z,46.50
2018-03-02T15:58:21.661Z,46.60
2018-03-02T16:00:50.668Z,48.00
2018-03-02T16:03:19.008Z,48.00
2018-03-02T16:05:48.005Z,46.90
2018-03-02T16:08:16.280Z,46.90
2018-03-02T16:10:45.450Z,47.10
2018-03-02T16:13:13.781Z,47.10
2018-03-02T16:15:42.870Z,48.30
2018-03-02T16:18:11.144Z,48.40
2018-03-02T16:20:39.404Z,48.00
2018-03-02T16:23:08.401Z,47.10
2018-03-02T16:25:36.757Z,47.10
2018-03-02T16:28:05.028Z,47.50
2018-03-02T16:30:33.285Z,47.80
2018-03-02T16:33:01.585Z,48.50
2018-03-02T16:35:29.966Z,48.80
2018-03-02T16:37:58.165Z,49.20
2018-03-02T16:40:26.458Z,49.40
2018-03-02T16:42:55.424Z,49.30
2018-03-02T16:45:23.657Z,49.30
2018-03-02T16:47:53.158Z,49.90
2018-03-02T16:50:21.388Z,50.30
2018-03-02T16:52:49.684Z,51.00
2018-03-02T16:55:18.853Z,50.10
2018-03-02T16:57:47.074Z,50.00
2018-03-02T17:00:15.277Z,50.90
2018-03-02T17:02:43.547Z,51.20
2018-03-02T17:05:11.729Z,51.00
2018-03-02T17:07:39.933Z,51.40
2018-03-02T17:10:08.280Z,51.40
2018-03-02T17:12:36.544Z,51.70
2018-03-02T17:15:05.018Z,51.60
2018-03-02T17:17:33.463Z,51.40
2018-03-02T17:20:01.723Z,51.10
2018-03-02T17:22:30.037Z,51.40
2018-03-02T17:24:59.041Z,52.30
2018-03-02T17:27:27.296Z,52.30
2018-03-02T17:29:56.333Z,52.30
2018-03-02T17:32:25.739Z,52.30
2018-03-02T17:34:54.097Z,52.30
2018-03-02T17:37:22.329Z,52.40
2018-03-02T17:39:51.539Z,52.40
2018-03-02T17:42:19.816Z,52.40
2018-03-02T17:44:48.824Z,53.50
2018-03-02T17:47:17.064Z,53.50
2018-03-02T17:49:45.288Z,53.60
2018-03-02T17:52:13.815Z,54.10
2018-03-02T17:54:42.382Z,54.10
2018-03-02T17:57:11.427Z,54.50
2018-03-02T17:59:39.807Z,53.80
2018-03-02T18:02:08.232Z,53.50
2018-03-02T18:04:36.509Z,53.60
2018-03-02T18:07:04.872Z,54.80
2018-03-02T18:09:33.126Z,54.30
2018-03-02T18:12:01.427Z,54.40
2018-03-02T18:14:29.739Z,53.70
2018-03-02T18:16:58.057Z,54.20
2018-03-02T18:19:26.295Z,54.00
2018-03-02T18:21:54.641Z,54.40
2018-03-02T18:24:23.023Z,54.50
2018-03-02T18:26:51.210Z,54.70
2018-03-02T18:29:19.457Z,54.10
2018-03-02T18:31:47.724Z,54.10
2018-03-02T18:34:15.925Z,54.40
2018-03-02T18:36:44.221Z,54.20
2018-03-02T18:39:12.495Z,54.30
2018-03-02T18:41:40.716Z,54.60
2018-03-02T18:44:09.719Z,54.80
2018-03-02T18:46:37.985Z,54.80
2018-03-02T18:49:07.090Z,55.70
2018-03-02T18:51:36.044Z,55.50
2018-03-02T18:54:04.368Z,55.50
2018-03-02T18:56:32.756Z,55.00
2018-03-02T18:59:00.976Z,55.00
2018-03-02T19:01:29.255Z,55.20
2018-03-02T19:03:57.598Z,54.70
2018-03-02T19:06:25.817Z,55.30
2018-03-02T19:08:54.073Z,55.30
2018-03-02T19:11:22.329Z,54.80
2018-03-02T19:13:50.638Z,55.00
2018-03-02T19:16:19.040Z,54.80
2018-03-02T19:18:48.177Z,55.60
2018-03-02T19:21:16.432Z,55.60
2018-03-02T19:23:45.123Z,56.10
2018-03-02T19:26:13.529Z,56.10
2018-03-02T19:28:41.748Z,56.10
2018-03-02T19:31:10.763Z,56.00
2018-03-02T19:33:39.043Z,55.90
2018-03-02T19:36:07.350Z,55.70
2018-03-02T19:38:35.580Z,55.30
2018-03-02T19:41:03.821Z,56.40
2018-03-02T19:43:32.002Z,56.30
2018-03-02T19:46:00.312Z,56.00
2018-03-02T19:48:28.521Z,56.20
2018-03-02T19:50:56.781Z,55.70
2018-03-02T19:53:25.020Z,55.10
2018-03-02T19:55:53.997Z,55.10
2018-03-02T19:58:22.256Z,55.10
2018-03-02T20:00:50.480Z,55.80
2018-03-02T20:03:18.822Z,55.80
2018-03-02T20:05:47.079Z,55.80
2018-03-02T20:08:15.509Z,55.60
2018-03-02T20:10:43.771Z,55.80
2018-03-02T20:13:11.980Z,55.30
2018-03-02T20:15:41.230Z,55.30
2018-03-02T20:18:09.559Z,55.30
2018-03-02T20:20:37.824Z,55.10
2018-03-02T20:23:06.124Z,55.60
2018-03-02T20:25:34.358Z,55.50
2018-03-02T20:28:03.354Z,55.50
2018-03-02T20:30:32.486Z,55.50
2018-03-02T20:33:00.691Z,55.50
2018-03-02T20:35:28.972Z,55.70
2018-03-02T20:37:57.241Z,55.30
2018-03-02T20:40:26.205Z,55.90
2018-03-02T20:42:54.424Z,55.90
2018-03-02T20:45:22.706Z,56.00
2018-03-02T20:47:50.969Z,56.40
2018-03-02T20:50:19.213Z,56.20
2018-03-02T20:52:49.844Z,56.40
2018-03-02T20:55:18.048Z,56.80
2018-03-02T20:57:46.419Z,56.10
2018-03-02T21:00:14.693Z,56.40
2018-03-02T21:02:43.021Z,56.20
2018-03-02T21:05:11.264Z,56.80
2018-03-02T21:07:39.589Z,56.90
2018-03-02T21:10:07.899Z,56.40
2018-03-02T21:12:36.110Z,56.40
2018-03-02T21:15:05.234Z,57.50
2018-03-02T21:17:33.445Z,57.50
2018-03-02T21:20:04.041Z,57.40
2018-03-02T21:22:33.622Z,57.40
2018-03-02T21:25:01.956Z,57.30
2018-03-02T21:27:30.646Z,56.70
2018-03-02T21:29:58.880Z,56.60
2018-03-02T21:32:27.093Z,57.40
2018-03-02T21:34:55.407Z,56.90
2018-03-02T21:37:25.663Z,57.10
2018-03-02T21:39:53.925Z,57.10
2018-03-02T21:42:22.127Z,57.50
2018-03-02T21:44:50.389Z,57.40
2018-03-02T21:47:18.656Z,57.80
2018-03-02T21:49:46.942Z,57.40
2018-03-02T21:52:16.342Z,57.50
2018-03-02T21:54:45.761Z,57.60
2018-03-02T21:57:14.133Z,57.60
2018-03-02T21:59:42.434Z,57.70
2018-03-02T22:02:10.661Z,57.40
2018-03-02T22:04:38.938Z,57.20
2018-03-02T22:07:07.184Z,57.10
2018-03-02T22:09:35.581Z,57.40
2018-03-02T22:12:04.574Z,57.50
2018-03-02T22:14:33.658Z,58.00
2018-03-02T22:17:01.940Z,58.00
2018-03-02T22:19:30.225Z,58.20
2018-03-02T22:22:00.776Z,57.70
2018-03-02T22:24:29.077Z,57.70
2018-03-02T22:26:57.369Z,58.00
2018-03-02T22:29:25.738Z,57.60
2018-03-02T22:31:54.140Z,57.00
2018-03-02T22:34:22.400Z,57.00
2018-03-02T22:36:50.708Z,57.10
2018-03-02T22:39:18.912Z,56.90
2018-03-02T22:41:47.279Z,56.90
2018-03-02T22:44:16.356Z,57.10
2018-03-02T22:46:44.564Z,57.10
2018-03-02T22:49:12.777Z,57.20
2018-03-02T22:51:41.012Z,57.80
2018-03-02T22:54:09.340Z,58.30
2018-03-02T22:56:37.581Z,58.40
2018-03-02T22:59:07.082Z,58.50
2018-03-02T23:01:35.682Z,57.70
2018-03-02T23:04:04.022Z,57.90
2018-03-02T23:06:33.361Z,58.80
2018-03-02T23:09:02.547Z,59.20
2018-03-02T23:11:30.750Z,58.00
2018-03-02T23:13:59.057Z,57.60
2018-03-02T23:16:28.072Z,58.20
2018-03-02T23:18:56.321Z,58.10
2018-03-02T23:21:24.561Z,57.90
2018-03-02T23:23:52.932Z,57.60
2018-03-02T23:26:21.165Z,58.20
2018-03-02T23:28:50.373Z,58.00
2018-03-02T23:31:19.366Z,57.90
2018-03-02T23:33:47.564Z,57.90
2018-03-02T23:36:15.842Z,58.30
2018-03-02T23:38:44.053Z,59.10
2018-03-02T23:41:12.310Z,58.80
2018-03-02T23:43:40.560Z,58.70
2018-03-02T23:46:08.859Z,58.80
2018-03-02T23:48:37.125Z,58.90
2018-03-02T23:51:05.463Z,58.70
2018-03-02T23:53:34.460Z,58.70
2018-03-02T23:56:03.482Z,58.10
2018-03-02T23:58:31.801Z,58.10
